sensor_id;sensor_type;location;lat;lon;timestamp;temperature;humidity
4451;DHT22;2238;50.180;9.230;2023-01-15T00:00:44;9.60;99.90
4451;DHT22;2238;50.180;9.230;2023-01-15T00:03:44;9.60;99.90
4451;DHT22;2238;50.180;9.230;2023-01-15T00:06:45;9.60;99.90
4451;DHT22;2238;50.180;9.230;2023-01-15T00:09:46;9.60;99.90
4451;DHT22;2238;50.180;9.230;2023-01-15T00:12:46;9.60;99.90
4451;DHT22;2238;50.180;9.230;2023-01-15T00:15:47;9.60;99.90
4451;DHT22;2238;50.180;9.230;2023-01-15T00:18:56;9.60;99.90
4451;DHT22;2238;50.180;9.230;2023-01-15T00:21:57;10.60;99.90
4451;DHT22;2238;50.180;9.230;2023-01-15T00:24:57;9.70;99.90
4451;DHT22;2238;50.180;9.230;2023-01-15T00:28:17;9.60;99.90
4451;DHT22;2238;50.180;9.230;2023-01-15T00:31:17;9.70;99.90
4451;DHT22;2238;50.180;9.230;2023-01-15T00:34:18;9.70;99.90
4451;DHT22;2238;50.180;9.230;2023-01-15T00:37:18;9.70;99.90
4451;DHT22;2238;50.180;9.230;2023-01-15T00:40:19;9.70;99.90
4451;DHT22;2238;50.180;9.230;2023-01-15T00:43:20;9.70;99.90
4451;DHT22;2238;50.180;9.230;2023-01-15T00:46:20;10.80;99.90
4451;DHT22;2238;50.180;9.230;2023-01-15T00:49:21;11.40;99.90
4451;DHT22;2238;50.180;9.230;2023-01-15T00:52:21;9.70;99.90
4451;DHT22;2238;50.180;9.230;2023-01-15T00:55:22;9.70;99.90
4451;DHT22;2238;50.180;9.230;2023-01-15T00:58:23;9.70;99.90
4451;DHT22;2238;50.180;9.230;2023-01-15T01:01:23;9.80;99.90
4451;DHT22;2238;50.180;9.230;2023-01-15T01:04:24;9.80;99.90
4451;DHT22;2238;50.180;9.230;2023-01-15T01:07:25;10.60;99.90
4451;DHT22;2238;50.180;9.230;2023-01-15T01:10:26;10.80;99.90
4451;DHT22;2238;50.180;9.230;2023-01-15T01:13:27;10.20;99.90
4451;DHT22;2238;50.180;9.230;2023-01-15T01:16:33;9.70;99.90
4451;DHT22;2238;50.180;9.230;2023-01-15T01:19:35;9.70;99.90
4451;DHT22;2238;50.180;9.230;2023-01-15T01:22:36;9.90;99.90
4451;DHT22;2238;50.180;9.230;2023-01-15T01:25:37;9.80;99.90
4451;DHT22;2238;50.180;9.230;2023-01-15T01:28:37;9.70;99.90
4451;DHT22;2238;50.180;9.230;2023-01-15T01:31:38;11.00;99.90
4451;DHT22;2238;50.180;9.230;2023-01-15T01:34:38;9.70;99.90
4451;DHT22;2238;50.180;9.230;2023-01-15T01:37:39;9.70;99.90
4451;DHT22;2238;50.180;9.230;2023-01-15T01:40:39;9.60;99.90
4451;DHT22;2238;50.180;9.230;2023-01-15T01:43:56;9.60;99.90
4451;DHT22;2238;50.180;9.230;2023-01-15T01:47:00;9.60;99.90
4451;DHT22;2238;50.180;9.230;2023-01-15T01:50:11;9.60;99.90
4451;DHT22;2238;50.180;9.230;2023-01-15T01:53:17;9.60;99.90
4451;DHT22;2238;50.180;9.230;2023-01-15T01:56:19;9.60;99.90
4451;DHT22;2238;50.180;9.230;2023-01-15T01:59:20;9.60;99.90
4451;DHT22;2238;50.180;9.230;2023-01-15T02:02:22;9.60;99.90
4451;DHT22;2238;50.180;9.230;2023-01-15T02:05:30;9.60;99.90
4451;DHT22;2238;50.180;9.230;2023-01-15T02:08:31;9.60;99.90
4451;DHT22;2238;50.180;9.230;2023-01-15T02:11:33;9.50;99.90
4451;DHT22;2238;50.180;9.230;2023-01-15T02:17:51;9.60;99.90
4451;DHT22;2238;50.180;9.230;2023-01-15T02:24:13;9.40;99.90
4451;DHT22;2238;50.180;9.230;2023-01-15T02:27:21;9.10;99.90
4451;DHT22;2238;50.180;9.230;2023-01-15T02:30:38;9.00;99.90
4451;DHT22;2238;50.180;9.230;2023-01-15T02:33:48;9.00;99.90
4451;DHT22;2238;50.180;9.230;2023-01-15T02:37:05;9.00;99.90
4451;DHT22;2238;50.180;9.230;2023-01-15T02:40:08;8.30;99.90
4451;DHT22;2238;50.180;9.230;2023-01-15T02:43:12;8.80;99.90
4451;DHT22;2238;50.180;9.230;2023-01-15T02:46:15;8.50;99.90
4451;DHT22;2238;50.180;9.230;2023-01-15T02:49:19;7.90;99.90
4451;DHT22;2238;50.180;9.230;2023-01-15T02:52:35;7.70;99.90
4451;DHT22;2238;50.180;9.230;2023-01-15T02:55:48;7.60;99.90
4451;DHT22;2238;50.180;9.230;2023-01-15T02:58:53;7.60;99.90
4451;DHT22;2238;50.180;9.230;2023-01-15T03:02:02;7.70;99.90
4451;DHT22;2238;50.180;9.230;2023-01-15T03:05:36;7.60;99.90
4451;DHT22;2238;50.180;9.230;2023-01-15T03:08:38;7.60;99.90
4451;DHT22;2238;50.180;9.230;2023-01-15T03:11:45;7.50;99.90
4451;DHT22;2238;50.180;9.230;2023-01-15T03:15:14;7.50;99.90
4451;DHT22;2238;50.180;9.230;2023-01-15T03:19:12;7.50;99.90
4451;DHT22;2238;50.180;9.230;2023-01-15T03:22:31;7.50;99.90
4451;DHT22;2238;50.180;9.230;2023-01-15T03:26:08;7.40;99.90
4451;DHT22;2238;50.180;9.230;2023-01-15T03:29:03;7.40;99.90
4451;DHT22;2238;50.180;9.230;2023-01-15T03:32:05;7.20;99.90
4451;DHT22;2238;50.180;9.230;2023-01-15T03:35:37;7.10;99.90
4451;DHT22;2238;50.180;9.230;2023-01-15T03:38:36;7.00;99.90
4451;DHT22;2238;50.180;9.230;2023-01-15T03:41:49;7.00;99.90
4451;DHT22;2238;50.180;9.230;2023-01-15T03:45:11;6.90;99.90
4451;DHT22;2238;50.180;9.230;2023-01-15T03:48:19;6.90;99.90
4451;DHT22;2238;50.180;9.230;2023-01-15T03:55:24;6.60;99.90
4451;DHT22;2238;50.180;9.230;2023-01-15T03:58:57;6.60;99.90
4451;DHT22;2238;50.180;9.230;2023-01-15T04:01:55;6.50;99.90
4451;DHT22;2238;50.180;9.230;2023-01-15T04:04:57;6.20;99.90
4451;DHT22;2238;50.180;9.230;2023-01-15T04:07:59;6.20;99.90
4451;DHT22;2238;50.180;9.230;2023-01-15T04:11:01;6.20;99.90
4451;DHT22;2238;50.180;9.230;2023-01-15T04:14:02;6.20;99.90
4451;DHT22;2238;50.180;9.230;2023-01-15T04:17:03;6.30;99.90
4451;DHT22;2238;50.180;9.230;2023-01-15T04:20:04;6.10;99.90
4451;DHT22;2238;50.180;9.230;2023-01-15T04:23:05;6.00;99.90
4451;DHT22;2238;50.180;9.230;2023-01-15T04:26:05;5.90;99.90
4451;DHT22;2238;50.180;9.230;2023-01-15T04:29:07;5.80;99.90
4451;DHT22;2238;50.180;9.230;2023-01-15T04:32:07;5.70;99.90
4451;DHT22;2238;50.180;9.230;2023-01-15T04:35:08;5.70;99.90
4451;DHT22;2238;50.180;9.230;2023-01-15T04:38:08;5.70;99.90
4451;DHT22;2238;50.180;9.230;2023-01-15T04:41:09;5.70;99.90
4451;DHT22;2238;50.180;9.230;2023-01-15T04:44:28;5.50;99.90
4451;DHT22;2238;50.180;9.230;2023-01-15T04:47:30;5.50;99.90
4451;DHT22;2238;50.180;9.230;2023-01-15T04:50:30;5.50;99.90
4451;DHT22;2238;50.180;9.230;2023-01-15T04:53:31;5.40;99.90
4451;DHT22;2238;50.180;9.230;2023-01-15T04:56:37;5.20;99.90
4451;DHT22;2238;50.180;9.230;2023-01-15T04:59:38;5.30;99.90
4451;DHT22;2238;50.180;9.230;2023-01-15T05:02:38;5.20;99.90
4451;DHT22;2238;50.180;9.230;2023-01-15T05:05:39;5.20;99.90
4451;DHT22;2238;50.180;9.230;2023-01-15T05:08:40;5.20;99.90
4451;DHT22;2238;50.180;9.230;2023-01-15T05:11:41;5.10;99.90
4451;DHT22;2238;50.180;9.230;2023-01-15T05:14:41;5.00;99.90
4451;DHT22;2238;50.180;9.230;2023-01-15T05:17:42;5.00;99.90
4451;DHT22;2238;50.180;9.230;2023-01-15T05:20:43;5.00;99.90
4451;DHT22;2238;50.180;9.230;2023-01-15T05:23:44;5.20;99.90
4451;DHT22;2238;50.180;9.230;2023-01-15T05:26:44;5.20;99.90
4451;DHT22;2238;50.180;9.230;2023-01-15T05:29:45;5.00;99.90
4451;DHT22;2238;50.180;9.230;2023-01-15T05:32:47;5.20;99.90
4451;DHT22;2238;50.180;9.230;2023-01-15T05:35:47;5.30;99.90
4451;DHT22;2238;50.180;9.230;2023-01-15T05:38:48;5.40;99.90
4451;DHT22;2238;50.180;9.230;2023-01-15T05:41:48;5.40;99.90
4451;DHT22;2238;50.180;9.230;2023-01-15T05:44:49;5.30;99.90
4451;DHT22;2238;50.180;9.230;2023-01-15T05:47:52;5.40;99.90
4451;DHT22;2238;50.180;9.230;2023-01-15T05:50:52;5.40;99.90
4451;DHT22;2238;50.180;9.230;2023-01-15T05:53:53;5.40;99.90
4451;DHT22;2238;50.180;9.230;2023-01-15T05:56:54;5.40;99.90
4451;DHT22;2238;50.180;9.230;2023-01-15T05:59:55;5.40;99.90
4451;DHT22;2238;50.180;9.230;2023-01-15T06:02:55;5.40;99.90
4451;DHT22;2238;50.180;9.230;2023-01-15T06:05:56;5.30;99.90
4451;DHT22;2238;50.180;9.230;2023-01-15T06:08:56;5.30;99.90
4451;DHT22;2238;50.180;9.230;2023-01-15T06:11:57;5.30;99.90
4451;DHT22;2238;50.180;9.230;2023-01-15T06:14:58;5.20;99.90
4451;DHT22;2238;50.180;9.230;2023-01-15T06:17:58;5.00;99.90
4451;DHT22;2238;50.180;9.230;2023-01-15T06:21:07;5.10;99.90
4451;DHT22;2238;50.180;9.230;2023-01-15T06:24:08;5.10;99.90
4451;DHT22;2238;50.180;9.230;2023-01-15T06:27:09;5.30;99.90
4451;DHT22;2238;50.180;9.230;2023-01-15T06:30:11;5.00;99.90
4451;DHT22;2238;50.180;9.230;2023-01-15T06:33:11;4.90;99.90
4451;DHT22;2238;50.180;9.230;2023-01-15T06:36:17;5.00;99.90
4451;DHT22;2238;50.180;9.230;2023-01-15T06:39:18;4.90;99.90
4451;DHT22;2238;50.180;9.230;2023-01-15T06:42:18;4.90;99.90
4451;DHT22;2238;50.180;9.230;2023-01-15T06:45:39;4.80;99.90
4451;DHT22;2238;50.180;9.230;2023-01-15T06:48:58;4.80;99.90
4451;DHT22;2238;50.180;9.230;2023-01-15T06:51:59;4.90;99.90
4451;DHT22;2238;50.180;9.230;2023-01-15T06:54:59;4.80;99.90
4451;DHT22;2238;50.180;9.230;2023-01-15T06:58:02;4.70;99.90
4451;DHT22;2238;50.180;9.230;2023-01-15T07:01:10;4.80;99.90
4451;DHT22;2238;50.180;9.230;2023-01-15T07:04:11;4.80;99.90
4451;DHT22;2238;50.180;9.230;2023-01-15T07:07:11;4.80;99.90
4451;DHT22;2238;50.180;9.230;2023-01-15T07:10:12;4.90;99.90
4451;DHT22;2238;50.180;9.230;2023-01-15T07:13:13;4.80;99.90
4451;DHT22;2238;50.180;9.230;2023-01-15T07:16:14;4.80;99.90
4451;DHT22;2238;50.180;9.230;2023-01-15T07:19:29;4.70;99.90
4451;DHT22;2238;50.180;9.230;2023-01-15T07:22:30;4.70;99.90
4451;DHT22;2238;50.180;9.230;2023-01-15T07:45:41;4.20;99.90
4451;DHT22;2238;50.180;9.230;2023-01-15T07:49:01;4.30;99.90
4451;DHT22;2238;50.180;9.230;2023-01-15T07:52:21;4.40;99.90
4451;DHT22;2238;50.180;9.230;2023-01-15T07:55:22;4.60;99.90
4451;DHT22;2238;50.180;9.230;2023-01-15T07:58:23;4.60;99.90
4451;DHT22;2238;50.180;9.230;2023-01-15T08:01:23;4.60;99.90
4451;DHT22;2238;50.180;9.230;2023-01-15T08:04:24;4.60;99.90
4451;DHT22;2238;50.180;9.230;2023-01-15T08:07:25;4.60;99.90
4451;DHT22;2238;50.180;9.230;2023-01-15T08:10:26;4.70;99.90
4451;DHT22;2238;50.180;9.230;2023-01-15T08:13:26;4.60;99.90
4451;DHT22;2238;50.180;9.230;2023-01-15T08:16:45;4.60;99.90
4451;DHT22;2238;50.180;9.230;2023-01-15T08:19:46;4.50;99.90
4451;DHT22;2238;50.180;9.230;2023-01-15T08:22:47;4.60;99.90
4451;DHT22;2238;50.180;9.230;2023-01-15T08:25:48;4.50;99.90
4451;DHT22;2238;50.180;9.230;2023-01-15T08:28:49;4.30;99.90
4451;DHT22;2238;50.180;9.230;2023-01-15T08:31:49;4.40;99.90
4451;DHT22;2238;50.180;9.230;2023-01-15T08:34:50;4.50;99.90
4451;DHT22;2238;50.180;9.230;2023-01-15T08:37:51;4.50;99.90
4451;DHT22;2238;50.180;9.230;2023-01-15T08:40:55;4.60;99.90
4451;DHT22;2238;50.180;9.230;2023-01-15T08:43:58;4.40;99.90
4451;DHT22;2238;50.180;9.230;2023-01-15T08:46:59;4.60;99.90
4451;DHT22;2238;50.180;9.230;2023-01-15T08:50:00;4.50;99.90
4451;DHT22;2238;50.180;9.230;2023-01-15T08:53:00;4.50;99.90
4451;DHT22;2238;50.180;9.230;2023-01-15T08:56:01;4.50;99.90
4451;DHT22;2238;50.180;9.230;2023-01-15T08:59:05;4.50;99.90
4451;DHT22;2238;50.180;9.230;2023-01-15T09:02:10;4.60;99.90
4451;DHT22;2238;50.180;9.230;2023-01-15T09:05:11;4.60;99.90
4451;DHT22;2238;50.180;9.230;2023-01-15T09:08:12;4.60;99.90
4451;DHT22;2238;50.180;9.230;2023-01-15T09:11:13;4.50;99.90
4451;DHT22;2238;50.180;9.230;2023-01-15T09:14:14;4.40;99.90
4451;DHT22;2238;50.180;9.230;2023-01-15T09:17:15;4.40;99.90
4451;DHT22;2238;50.180;9.230;2023-01-15T09:20:16;4.40;99.90
4451;DHT22;2238;50.180;9.230;2023-01-15T09:23:16;4.30;99.90
4451;DHT22;2238;50.180;9.230;2023-01-15T09:26:35;4.30;99.90
4451;DHT22;2238;50.180;9.230;2023-01-15T09:29:35;4.30;99.90
4451;DHT22;2238;50.180;9.230;2023-01-15T09:32:36;4.30;99.90
4451;DHT22;2238;50.180;9.230;2023-01-15T09:35:37;4.40;99.90
4451;DHT22;2238;50.180;9.230;2023-01-15T09:38:38;4.30;99.90
4451;DHT22;2238;50.180;9.230;2023-01-15T09:42:07;4.40;99.90
4451;DHT22;2238;50.180;9.230;2023-01-15T09:45:25;4.30;99.90
4451;DHT22;2238;50.180;9.230;2023-01-15T09:51:42;4.40;99.90
4451;DHT22;2238;50.180;9.230;2023-01-15T09:55:02;4.40;99.90
4451;DHT22;2238;50.180;9.230;2023-01-15T09:58:05;4.50;99.90
4451;DHT22;2238;50.180;9.230;2023-01-15T10:01:15;4.50;99.90
4451;DHT22;2238;50.180;9.230;2023-01-15T10:04:34;4.50;99.90
4451;DHT22;2238;50.180;9.230;2023-01-15T10:10:54;4.60;99.90
4451;DHT22;2238;50.180;9.230;2023-01-15T10:14:04;4.60;99.90
4451;DHT22;2238;50.180;9.230;2023-01-15T10:17:17;4.50;99.90
4451;DHT22;2238;50.180;9.230;2023-01-15T10:27:22;4.60;99.90
4451;DHT22;2238;50.180;9.230;2023-01-15T10:30:39;4.60;99.90
4451;DHT22;2238;50.180;9.230;2023-01-15T10:37:14;4.60;99.90
4451;DHT22;2238;50.180;9.230;2023-01-15T10:43:19;4.70;99.90
4451;DHT22;2238;50.180;9.230;2023-01-15T10:46:27;4.60;99.90
4451;DHT22;2238;50.180;9.230;2023-01-15T10:49:33;4.70;99.90
4451;DHT22;2238;50.180;9.230;2023-01-15T10:52:36;4.80;99.90
4451;DHT22;2238;50.180;9.230;2023-01-15T10:55:52;4.80;99.90
4451;DHT22;2238;50.180;9.230;2023-01-15T11:02:01;4.80;99.90
4451;DHT22;2238;50.180;9.230;2023-01-15T11:05:03;4.80;99.90
4451;DHT22;2238;50.180;9.230;2023-01-15T11:08:09;4.90;99.90
4451;DHT22;2238;50.180;9.230;2023-01-15T11:11:28;4.80;99.90
4451;DHT22;2238;50.180;9.230;2023-01-15T11:14:49;4.90;99.90
4451;DHT22;2238;50.180;9.230;2023-01-15T11:18:15;4.90;99.90
4451;DHT22;2238;50.180;9.230;2023-01-15T11:21:39;4.90;99.90
4451;DHT22;2238;50.180;9.230;2023-01-15T11:27:48;4.80;99.90
4451;DHT22;2238;50.180;9.230;2023-01-15T11:30:53;4.80;99.90
4451;DHT22;2238;50.180;9.230;2023-01-15T11:33:58;4.80;99.90
4451;DHT22;2238;50.180;9.230;2023-01-15T11:37:04;4.90;99.90
4451;DHT22;2238;50.180;9.230;2023-01-15T11:40:15;4.90;99.90
4451;DHT22;2238;50.180;9.230;2023-01-15T11:43:20;5.00;99.90
4451;DHT22;2238;50.180;9.230;2023-01-15T11:46:40;5.10;99.90
4451;DHT22;2238;50.180;9.230;2023-01-15T11:49:59;5.00;99.90
4451;DHT22;2238;50.180;9.230;2023-01-15T11:53:24;4.90;99.90
4451;DHT22;2238;50.180;9.230;2023-01-15T11:56:27;4.90;99.90
4451;DHT22;2238;50.180;9.230;2023-01-15T11:59:29;4.90;99.90
4451;DHT22;2238;50.180;9.230;2023-01-15T12:02:37;4.90;99.90
4451;DHT22;2238;50.180;9.230;2023-01-15T12:05:54;4.90;99.90
4451;DHT22;2238;50.180;9.230;2023-01-15T12:26:25;4.90;99.90
4451;DHT22;2238;50.180;9.230;2023-01-15T12:29:38;4.90;99.90
4451;DHT22;2238;50.180;9.230;2023-01-15T12:32:53;3.50;99.90
4451;DHT22;2238;50.180;9.230;2023-01-15T12:36:02;4.90;99.90
4451;DHT22;2238;50.180;9.230;2023-01-15T12:39:18;5.00;99.90
4451;DHT22;2238;50.180;9.230;2023-01-15T12:42:22;5.00;99.90
4451;DHT22;2238;50.180;9.230;2023-01-15T12:45:48;5.00;99.90
4451;DHT22;2238;50.180;9.230;2023-01-15T12:49:27;5.10;99.90
4451;DHT22;2238;50.180;9.230;2023-01-15T12:52:38;5.20;99.90
4451;DHT22;2238;50.180;9.230;2023-01-15T12:59:33;5.10;99.90
4451;DHT22;2238;50.180;9.230;2023-01-15T13:06:01;5.10;99.90
4451;DHT22;2238;50.180;9.230;2023-01-15T13:12:19;5.20;99.90
4451;DHT22;2238;50.180;9.230;2023-01-15T13:15:24;5.20;99.90
4451;DHT22;2238;50.180;9.230;2023-01-15T13:18:40;5.20;99.90
4451;DHT22;2238;50.180;9.230;2023-01-15T13:21:44;5.40;99.90
4451;DHT22;2238;50.180;9.230;2023-01-15T13:25:12;5.40;99.90
4451;DHT22;2238;50.180;9.230;2023-01-15T13:28:36;5.40;99.90
4451;DHT22;2238;50.180;9.230;2023-01-15T13:34:53;5.40;99.90
4451;DHT22;2238;50.180;9.230;2023-01-15T13:37:58;5.50;99.90
4451;DHT22;2238;50.180;9.230;2023-01-15T13:41:00;5.40;99.90
4451;DHT22;2238;50.180;9.230;2023-01-15T13:44:00;5.50;99.90
4451;DHT22;2238;50.180;9.230;2023-01-15T13:47:12;5.50;99.90
4451;DHT22;2238;50.180;9.230;2023-01-15T13:50:35;5.60;99.90
4451;DHT22;2238;50.180;9.230;2023-01-15T13:53:45;5.50;99.90
4451;DHT22;2238;50.180;9.230;2023-01-15T13:56:46;6.00;99.90
4451;DHT22;2238;50.180;9.230;2023-01-15T13:59:47;5.80;99.90
4451;DHT22;2238;50.180;9.230;2023-01-15T14:02:53;5.80;99.90
4451;DHT22;2238;50.180;9.230;2023-01-15T14:06:02;5.70;99.90
4451;DHT22;2238;50.180;9.230;2023-01-15T14:09:04;5.70;99.90
4451;DHT22;2238;50.180;9.230;2023-01-15T14:19:05;5.70;99.90
4451;DHT22;2238;50.180;9.230;2023-01-15T14:29:06;5.60;99.90
4451;DHT22;2238;50.180;9.230;2023-01-15T14:32:27;5.50;99.90
4451;DHT22;2238;50.180;9.230;2023-01-15T14:35:34;5.60;99.90
4451;DHT22;2238;50.180;9.230;2023-01-15T14:38:35;5.60;99.90
4451;DHT22;2238;50.180;9.230;2023-01-15T14:41:36;5.50;99.90
4451;DHT22;2238;50.180;9.230;2023-01-15T14:45:45;5.60;99.90
4451;DHT22;2238;50.180;9.230;2023-01-15T14:51:30;5.50;99.90
4451;DHT22;2238;50.180;9.230;2023-01-15T14:54:32;5.50;99.90
4451;DHT22;2238;50.180;9.230;2023-01-15T14:57:33;5.50;99.90
4451;DHT22;2238;50.180;9.230;2023-01-15T15:00:38;5.50;99.90
4451;DHT22;2238;50.180;9.230;2023-01-15T15:07:20;5.50;99.90
4451;DHT22;2238;50.180;9.230;2023-01-15T15:10:36;5.50;99.90
4451;DHT22;2238;50.180;9.230;2023-01-15T15:13:43;5.50;99.90
4451;DHT22;2238;50.180;9.230;2023-01-15T15:16:47;5.60;99.90
4451;DHT22;2238;50.180;9.230;2023-01-15T15:19:58;5.70;99.90
4451;DHT22;2238;50.180;9.230;2023-01-15T15:23:27;5.60;99.90
4451;DHT22;2238;50.180;9.230;2023-01-15T15:26:31;5.50;99.90
4451;DHT22;2238;50.180;9.230;2023-01-15T15:29:32;5.50;99.90
4451;DHT22;2238;50.180;9.230;2023-01-15T15:32:33;5.50;99.90
4451;DHT22;2238;50.180;9.230;2023-01-15T15:35:54;5.50;99.90
4451;DHT22;2238;50.180;9.230;2023-01-15T15:39:02;5.50;99.90
4451;DHT22;2238;50.180;9.230;2023-01-15T15:42:06;5.50;99.90
4451;DHT22;2238;50.180;9.230;2023-01-15T15:45:30;5.50;99.90
4451;DHT22;2238;50.180;9.230;2023-01-15T15:48:56;5.60;99.90
4451;DHT22;2238;50.180;9.230;2023-01-15T15:51:57;5.50;99.90
4451;DHT22;2238;50.180;9.230;2023-01-15T15:54:59;5.60;99.90
4451;DHT22;2238;50.180;9.230;2023-01-15T15:58:01;5.60;99.90
4451;DHT22;2238;50.180;9.230;2023-01-15T16:01:02;5.60;99.90
4451;DHT22;2238;50.180;9.230;2023-01-15T16:04:03;5.60;99.90
4451;DHT22;2238;50.180;9.230;2023-01-15T16:07:17;5.60;99.90
4451;DHT22;2238;50.180;9.230;2023-01-15T16:10:31;5.50;99.90
4451;DHT22;2238;50.180;9.230;2023-01-15T16:13:41;5.50;99.90
4451;DHT22;2238;50.180;9.230;2023-01-15T16:16:45;5.50;99.90
4451;DHT22;2238;50.180;9.230;2023-01-15T16:19:46;5.50;99.90
4451;DHT22;2238;50.180;9.230;2023-01-15T16:23:01;5.60;99.90
4451;DHT22;2238;50.180;9.230;2023-01-15T16:26:13;5.60;99.90
4451;DHT22;2238;50.180;9.230;2023-01-15T16:29:24;5.50;99.90
4451;DHT22;2238;50.180;9.230;2023-01-15T16:32:30;5.60;99.90
4451;DHT22;2238;50.180;9.230;2023-01-15T16:35:33;5.60;99.90
4451;DHT22;2238;50.180;9.230;2023-01-15T16:38:39;5.60;99.90
4451;DHT22;2238;50.180;9.230;2023-01-15T16:41:40;5.60;99.90
4451;DHT22;2238;50.180;9.230;2023-01-15T16:44:52;5.60;99.90
4451;DHT22;2238;50.180;9.230;2023-01-15T16:57:34;5.60;99.90
4451;DHT22;2238;50.180;9.230;2023-01-15T17:00:36;5.60;99.90
4451;DHT22;2238;50.180;9.230;2023-01-15T17:03:40;5.50;99.90
4451;DHT22;2238;50.180;9.230;2023-01-15T17:06:41;5.50;99.90
4451;DHT22;2238;50.180;9.230;2023-01-15T17:09:44;5.80;99.90
4451;DHT22;2238;50.180;9.230;2023-01-15T17:12:46;5.50;99.90
4451;DHT22;2238;50.180;9.230;2023-01-15T17:16:00;5.40;99.90
4451;DHT22;2238;50.180;9.230;2023-01-15T17:19:04;5.50;99.90
4451;DHT22;2238;50.180;9.230;2023-01-15T17:22:29;7.10;99.90
4451;DHT22;2238;50.180;9.230;2023-01-15T17:25:31;5.40;99.90
4451;DHT22;2238;50.180;9.230;2023-01-15T17:28:32;5.30;99.90
4451;DHT22;2238;50.180;9.230;2023-01-15T17:31:33;5.30;99.90
4451;DHT22;2238;50.180;9.230;2023-01-15T17:34:35;5.40;99.90
4451;DHT22;2238;50.180;9.230;2023-01-15T17:37:36;5.40;99.90
4451;DHT22;2238;50.180;9.230;2023-01-15T17:40:37;5.40;99.90
4451;DHT22;2238;50.180;9.230;2023-01-15T17:43:38;5.30;99.90
4451;DHT22;2238;50.180;9.230;2023-01-15T17:46:38;5.30;99.90
4451;DHT22;2238;50.180;9.230;2023-01-15T17:49:39;5.20;99.90
4451;DHT22;2238;50.180;9.230;2023-01-15T17:52:40;5.20;99.90
4451;DHT22;2238;50.180;9.230;2023-01-15T17:55:42;5.10;99.90
4451;DHT22;2238;50.180;9.230;2023-01-15T17:59:01;5.10;99.90
4451;DHT22;2238;50.180;9.230;2023-01-15T18:02:20;5.00;99.90
4451;DHT22;2238;50.180;9.230;2023-01-15T18:05:40;5.10;99.90
4451;DHT22;2238;50.180;9.230;2023-01-15T18:08:45;5.00;99.90
4451;DHT22;2238;50.180;9.230;2023-01-15T18:11:46;5.00;99.90
4451;DHT22;2238;50.180;9.230;2023-01-15T18:14:47;4.90;99.90
4451;DHT22;2238;50.180;9.230;2023-01-15T18:17:48;5.00;99.90
4451;DHT22;2238;50.180;9.230;2023-01-15T18:20:49;4.90;99.90
4451;DHT22;2238;50.180;9.230;2023-01-15T18:23:49;6.60;99.90
4451;DHT22;2238;50.180;9.230;2023-01-15T18:26:50;6.60;99.90
4451;DHT22;2238;50.180;9.230;2023-01-15T18:29:51;5.00;99.90
4451;DHT22;2238;50.180;9.230;2023-01-15T18:32:51;5.00;99.90
4451;DHT22;2238;50.180;9.230;2023-01-15T18:36:10;6.70;99.90
4451;DHT22;2238;50.180;9.230;2023-01-15T18:39:10;4.90;99.90
4451;DHT22;2238;50.180;9.230;2023-01-15T18:42:12;5.00;99.90
4451;DHT22;2238;50.180;9.230;2023-01-15T18:45:13;5.00;99.90
4451;DHT22;2238;50.180;9.230;2023-01-15T18:48:33;4.90;99.90
4451;DHT22;2238;50.180;9.230;2023-01-15T18:51:34;4.90;99.90
4451;DHT22;2238;50.180;9.230;2023-01-15T18:54:35;5.00;99.90
4451;DHT22;2238;50.180;9.230;2023-01-15T18:57:35;5.20;99.90
4451;DHT22;2238;50.180;9.230;2023-01-15T19:00:36;5.00;99.90
4451;DHT22;2238;50.180;9.230;2023-01-15T19:03:37;5.00;99.90
4451;DHT22;2238;50.180;9.230;2023-01-15T19:06:38;4.90;99.90
4451;DHT22;2238;50.180;9.230;2023-01-15T19:09:39;6.80;99.90
4451;DHT22;2238;50.180;9.230;2023-01-15T19:12:40;5.00;99.90
4451;DHT22;2238;50.180;9.230;2023-01-15T19:15:40;5.00;99.90
4451;DHT22;2238;50.180;9.230;2023-01-15T19:19:00;5.10;99.90
4451;DHT22;2238;50.180;9.230;2023-01-15T19:22:00;5.10;99.90
4451;DHT22;2238;50.180;9.230;2023-01-15T19:25:20;5.10;99.90
4451;DHT22;2238;50.180;9.230;2023-01-15T19:28:22;5.10;99.90
4451;DHT22;2238;50.180;9.230;2023-01-15T19:31:23;5.20;99.90
4451;DHT22;2238;50.180;9.230;2023-01-15T19:34:36;5.10;99.90
4451;DHT22;2238;50.180;9.230;2023-01-15T19:37:36;5.10;99.90
4451;DHT22;2238;50.180;9.230;2023-01-15T19:40:39;5.10;99.90
4451;DHT22;2238;50.180;9.230;2023-01-15T19:43:41;5.00;99.90
4451;DHT22;2238;50.180;9.230;2023-01-15T19:47:00;5.10;99.90
4451;DHT22;2238;50.180;9.230;2023-01-15T19:50:23;5.10;99.90
4451;DHT22;2238;50.180;9.230;2023-01-15T19:53:25;5.00;99.90
4451;DHT22;2238;50.180;9.230;2023-01-15T19:56:25;5.00;99.90
4451;DHT22;2238;50.180;9.230;2023-01-15T19:59:27;7.10;99.90
4451;DHT22;2238;50.180;9.230;2023-01-15T20:02:28;5.00;99.90
4451;DHT22;2238;50.180;9.230;2023-01-15T20:05:29;5.00;99.90
4451;DHT22;2238;50.180;9.230;2023-01-15T20:08:32;5.10;99.90
4451;DHT22;2238;50.180;9.230;2023-01-15T20:11:33;5.10;99.90
4451;DHT22;2238;50.180;9.230;2023-01-15T20:14:54;5.10;99.90
4451;DHT22;2238;50.180;9.230;2023-01-15T20:17:56;5.00;99.90
4451;DHT22;2238;50.180;9.230;2023-01-15T20:20:56;5.10;99.90
4451;DHT22;2238;50.180;9.230;2023-01-15T20:23:57;5.10;99.90
4451;DHT22;2238;50.180;9.230;2023-01-15T20:26:57;6.90;99.90
4451;DHT22;2238;50.180;9.230;2023-01-15T20:29:58;5.00;99.90
4451;DHT22;2238;50.180;9.230;2023-01-15T20:33:01;3.70;99.90
4451;DHT22;2238;50.180;9.230;2023-01-15T20:36:02;5.00;99.90
4451;DHT22;2238;50.180;9.230;2023-01-15T20:39:03;5.00;99.90
4451;DHT22;2238;50.180;9.230;2023-01-15T20:42:04;5.00;99.90
4451;DHT22;2238;50.180;9.230;2023-01-15T20:45:24;6.70;99.90
4451;DHT22;2238;50.180;9.230;2023-01-15T20:48:24;5.10;99.90
4451;DHT22;2238;50.180;9.230;2023-01-15T20:51:44;5.00;99.90
4451;DHT22;2238;50.180;9.230;2023-01-15T20:54:46;4.90;99.90
4451;DHT22;2238;50.180;9.230;2023-01-15T20:57:47;5.00;99.90
4451;DHT22;2238;50.180;9.230;2023-01-15T21:00:47;5.00;99.90
4451;DHT22;2238;50.180;9.230;2023-01-15T21:03:48;5.10;99.90
4451;DHT22;2238;50.180;9.230;2023-01-15T21:06:48;5.10;99.90
4451;DHT22;2238;50.180;9.230;2023-01-15T21:09:49;5.00;99.90
4451;DHT22;2238;50.180;9.230;2023-01-15T21:12:51;5.10;99.90
4451;DHT22;2238;50.180;9.230;2023-01-15T21:16:03;5.00;99.90
4451;DHT22;2238;50.180;9.230;2023-01-15T21:19:04;5.00;99.90
4451;DHT22;2238;50.180;9.230;2023-01-15T21:22:04;5.00;99.90
4451;DHT22;2238;50.180;9.230;2023-01-15T21:25:06;5.10;99.90
4451;DHT22;2238;50.180;9.230;2023-01-15T21:28:09;5.00;99.90
4451;DHT22;2238;50.180;9.230;2023-01-15T21:31:10;5.00;99.90
4451;DHT22;2238;50.180;9.230;2023-01-15T21:34:11;5.00;99.90
4451;DHT22;2238;50.180;9.230;2023-01-15T21:37:13;5.00;99.90
4451;DHT22;2238;50.180;9.230;2023-01-15T21:40:14;5.10;99.90
4451;DHT22;2238;50.180;9.230;2023-01-15T21:43:15;6.00;99.90
4451;DHT22;2238;50.180;9.230;2023-01-15T21:46:34;5.10;99.90
4451;DHT22;2238;50.180;9.230;2023-01-15T21:49:34;5.10;99.90
4451;DHT22;2238;50.180;9.230;2023-01-15T21:52:35;5.10;99.90
4451;DHT22;2238;50.180;9.230;2023-01-15T21:55:36;5.10;99.90
4451;DHT22;2238;50.180;9.230;2023-01-15T21:58:40;5.10;99.90
4451;DHT22;2238;50.180;9.230;2023-01-15T22:01:40;5.00;99.90
4451;DHT22;2238;50.180;9.230;2023-01-15T22:04:41;5.10;99.90
4451;DHT22;2238;50.180;9.230;2023-01-15T22:07:46;5.10;99.90
4451;DHT22;2238;50.180;9.230;2023-01-15T22:10:46;4.90;99.90
4451;DHT22;2238;50.180;9.230;2023-01-15T22:13:50;5.00;99.90
4451;DHT22;2238;50.180;9.230;2023-01-15T22:16:52;5.00;99.90
4451;DHT22;2238;50.180;9.230;2023-01-15T22:19:53;5.00;99.90
4451;DHT22;2238;50.180;9.230;2023-01-15T22:22:54;5.00;99.90
4451;DHT22;2238;50.180;9.230;2023-01-15T22:25:54;5.00;99.90
4451;DHT22;2238;50.180;9.230;2023-01-15T22:28:56;5.10;99.90